Time;durP1;ratioP1;P1;durP2;ratioP2;P2;SDS_P1;SDS_P2;PMS_P1;PMS_P2;Temp;Humidity;BMP_temperature;BMP_pressure;BME280_temperature;BME280_humidity;BME280_pressure;Samples;Min_cycle;Max_cycle;Signal;HPM_P1;HPM_P2
2023/08/27 00:01:23;;;;;;;7.07;3.42;;;;;;;;;;4862665;29;20505;-91
2023/08/27 00:03:51;;;;;;;3.70;2.90;;;;;;;;;;4878181;29;20049;-91
2023/08/27 00:06:20;;;;;;;3.47;2.33;;;;;;;;;;4878729;29;20575;-91
2023/08/27 00:08:47;;;;;;;3.20;2.60;;;;;;;;;;4846599;29;20064;-91
2023/08/27 00:11:14;;;;;;;5.97;3.55;;;;;;;;;;4878546;29;20044;-91
2023/08/27 00:13:42;;;;;;;2.30;2.03;;;;;;;;;;4861995;29;20056;-92
2023/08/27 00:16:09;;;;;;;3.55;3.22;;;;;;;;;;4879682;29;20061;-92
2023/08/27 00:18:36;;;;;;;10.10;3.08;;;;;;;;;;4879194;29;20061;-90
2023/08/27 00:21:04;;;;;;;7.93;3.22;;;;;;;;;;4876147;29;20063;-91
2023/08/27 00:23:33;;;;;;;3.80;3.15;;;;;;;;;;4871861;29;20540;-90
2023/08/27 00:26:00;;;;;;;5.30;3.13;;;;;;;;;;4863806;29;20053;-91
2023/08/27 00:28:28;;;;;;;4.43;3.25;;;;;;;;;;4869340;29;20488;-92
2023/08/27 00:31:03;;;;;;;5.13;3.08;;;;;;;;;;4848578;29;20065;-90
2023/08/27 00:33:30;;;;;;;3.38;2.38;;;;;;;;;;4872242;29;20083;-90
2023/08/27 00:36:00;;;;;;;5.97;3.17;;;;;;;;;;4846111;29;20065;-91
2023/08/27 00:38:28;;;;;;;8.05;3.10;;;;;;;;;;4878428;29;20075;-92
2023/08/27 00:40:57;;;;;;;2.90;2.60;;;;;;;;;;4874696;29;20056;-92
2023/08/27 00:43:24;;;;;;;4.18;3.08;;;;;;;;;;4849615;29;20057;-91
2023/08/27 00:45:52;;;;;;;3.45;2.75;;;;;;;;;;4885592;29;20049;-90
2023/08/27 00:48:20;;;;;;;3.53;2.35;;;;;;;;;;4861905;29;20060;-91
2023/08/27 00:50:48;;;;;;;4.20;2.95;;;;;;;;;;4846916;29;20048;-91
2023/08/27 00:53:18;;;;;;;4.80;3.08;;;;;;;;;;4861546;29;20068;-90
2023/08/27 00:55:45;;;;;;;5.32;3.50;;;;;;;;;;4853282;29;20075;-91
2023/08/27 00:58:14;;;;;;;3.85;2.92;;;;;;;;;;4885494;29;20056;-92
2023/08/27 01:00:41;;;;;;;6.40;3.83;;;;;;;;;;4864768;29;20053;-91
2023/08/27 01:03:09;;;;;;;4.93;2.83;;;;;;;;;;4853522;29;20509;-91
2023/08/27 01:05:38;;;;;;;4.15;3.35;;;;;;;;;;4875634;29;20053;-90
2023/08/27 01:08:11;;;;;;;4.07;3.10;;;;;;;;;;4859150;29;20052;-92
2023/08/27 01:10:44;;;;;;;3.78;3.35;;;;;;;;;;4859711;29;20082;-90
2023/08/27 01:13:20;;;;;;;6.15;3.50;;;;;;;;;;4879032;29;20041;-91
2023/08/27 01:15:50;;;;;;;9.20;2.85;;;;;;;;;;4866885;29;20060;-91
2023/08/27 01:18:17;;;;;;;4.35;3.10;;;;;;;;;;4844901;29;20367;-90
2023/08/27 01:20:45;;;;;;;3.78;3.38;;;;;;;;;;4858233;29;20061;-91
2023/08/27 01:23:17;;;;;;;5.63;2.65;;;;;;;;;;4850996;29;20052;-93
2023/08/27 01:25:46;;;;;;;8.77;4.25;;;;;;;;;;4873461;29;20433;-94
2023/08/27 01:28:31;;;;;;;4.75;2.90;;;;;;;;;;4848608;29;20066;-94
2023/08/27 01:31:03;;;;;;;4.32;2.60;;;;;;;;;;4874726;29;20760;-94
2023/08/27 01:33:31;;;;;;;7.50;3.33;;;;;;;;;;4862165;29;20061;-93
2023/08/27 01:36:02;;;;;;;3.40;3.10;;;;;;;;;;4859116;29;20056;-93
2023/08/27 01:38:31;;;;;;;5.70;3.10;;;;;;;;;;4862866;29;20053;-92
2023/08/27 01:40:58;;;;;;;5.60;2.92;;;;;;;;;;4879498;29;20060;-93
2023/08/27 01:43:28;;;;;;;3.75;2.58;;;;;;;;;;4865975;29;20067;-94
2023/08/27 01:45:56;;;;;;;4.20;2.55;;;;;;;;;;4858807;29;20071;-93
2023/08/27 01:48:23;;;;;;;3.97;2.65;;;;;;;;;;4860126;29;20530;-93
2023/08/27 01:50:51;;;;;;;4.22;3.03;;;;;;;;;;4857651;29;20053;-94
2023/08/27 01:53:18;;;;;;;4.93;2.78;;;;;;;;;;4864716;29;20083;-93
2023/08/27 01:55:47;;;;;;;7.10;3.50;;;;;;;;;;4866077;29;20060;-94
2023/08/27 01:58:14;;;;;;;7.60;2.90;;;;;;;;;;4864953;29;20414;-94
2023/08/27 02:00:43;;;;;;;3.55;2.58;;;;;;;;;;4884372;29;20056;-93
2023/08/27 02:03:14;;;;;;;6.22;3.35;;;;;;;;;;4863642;29;20060;-94
2023/08/27 02:05:41;;;;;;;4.38;3.50;;;;;;;;;;4856308;29;20543;-93
2023/08/27 02:08:08;;;;;;;4.28;2.78;;;;;;;;;;4865337;29;20505;-93
2023/08/27 02:10:38;;;;;;;4.93;3.17;;;;;;;;;;4876701;29;20064;-94
2023/08/27 02:13:09;;;;;;;4.32;3.33;;;;;;;;;;4886739;29;20053;-93
2023/08/27 02:15:39;;;;;;;3.97;3.22;;;;;;;;;;4875068;29;20052;-93
2023/08/27 02:18:07;;;;;;;3.38;2.47;;;;;;;;;;4862616;29;20517;-94
2023/08/27 02:20:34;;;;;;;7.53;2.78;;;;;;;;;;4858687;29;20049;-93
2023/08/27 02:23:03;;;;;;;5.90;3.33;;;;;;;;;;4883155;29;20517;-94
2023/08/27 02:25:31;;;;;;;5.50;2.63;;;;;;;;;;4843232;29;20068;-93
2023/08/27 02:27:58;;;;;;;10.30;3.83;;;;;;;;;;4845554;29;20064;-93
2023/08/27 02:30:30;;;;;;;8.27;3.30;;;;;;;;;;4864147;29;20060;-93
2023/08/27 02:32:58;;;;;;;4.32;2.97;;;;;;;;;;4862531;29;20052;-93
2023/08/27 02:35:26;;;;;;;3.90;3.30;;;;;;;;;;4866891;29;20064;-94
2023/08/27 02:37:53;;;;;;;5.18;3.10;;;;;;;;;;4873939;29;20052;-93
2023/08/27 02:40:23;;;;;;;5.20;2.67;;;;;;;;;;4849011;29;20067;-94
2023/08/27 02:42:53;;;;;;;9.65;3.65;;;;;;;;;;4857124;29;20456;-94
2023/08/27 02:45:23;;;;;;;3.53;3.22;;;;;;;;;;4852197;29;20061;-94
2023/08/27 02:47:52;;;;;;;4.30;3.10;;;;;;;;;;4872968;29;20519;-94
2023/08/27 02:50:19;;;;;;;7.90;2.90;;;;;;;;;;4868217;29;20060;-94
2023/08/27 02:52:49;;;;;;;7.95;3.47;;;;;;;;;;4850122;29;20448;-93
2023/08/27 02:55:18;;;;;;;10.93;3.72;;;;;;;;;;4861878;29;20053;-93
2023/08/27 02:57:45;;;;;;;5.57;3.33;;;;;;;;;;4859506;29;20041;-93
2023/08/27 03:00:14;;;;;;;4.75;2.85;;;;;;;;;;4860876;29;20036;-94
2023/08/27 03:02:46;;;;;;;10.27;3.85;;;;;;;;;;4861727;29;20064;-92
2023/08/27 03:05:15;;;;;;;5.47;3.75;;;;;;;;;;4888304;29;20497;-93
2023/08/27 03:07:45;;;;;;;4.45;2.58;;;;;;;;;;4858486;29;20068;-94
2023/08/27 03:10:16;;;;;;;3.00;2.58;;;;;;;;;;4860419;29;20045;-94
2023/08/27 03:12:48;;;;;;;4.80;3.78;;;;;;;;;;4862633;29;20060;-94
2023/08/27 03:15:16;;;;;;;6.18;4.20;;;;;;;;;;4864874;29;20072;-94
2023/08/27 03:17:43;;;;;;;3.40;3.10;;;;;;;;;;4851162;29;20071;-92
2023/08/27 03:20:11;;;;;;;4.63;2.88;;;;;;;;;;4873579;29;20052;-95
2023/08/27 03:22:40;;;;;;;5.65;3.03;;;;;;;;;;4862945;29;20049;-93
2023/08/27 03:25:07;;;;;;;3.75;2.92;;;;;;;;;;4864020;29;20542;-94
2023/08/27 03:27:35;;;;;;;5.88;2.65;;;;;;;;;;4864352;29;20053;-92
2023/08/27 03:30:03;;;;;;;4.38;2.90;;;;;;;;;;4870703;29;20052;-93
2023/08/27 03:32:31;;;;;;;5.53;2.90;;;;;;;;;;4849214;29;20437;-94
2023/08/27 03:34:59;;;;;;;4.07;3.08;;;;;;;;;;4867281;29;20418;-93
2023/08/27 03:37:26;;;;;;;6.82;3.10;;;;;;;;;;4847920;29;20061;-93
2023/08/27 03:39:57;;;;;;;7.25;3.88;;;;;;;;;;4869833;29;20056;-94
2023/08/27 03:42:27;;;;;;;3.95;3.50;;;;;;;;;;4859184;29;20087;-93
2023/08/27 03:44:59;;;;;;;4.68;2.92;;;;;;;;;;4870150;29;20044;-93
2023/08/27 03:47:29;;;;;;;2.65;2.45;;;;;;;;;;4852906;29;20076;-94
2023/08/27 03:49:56;;;;;;;6.03;2.90;;;;;;;;;;4847315;29;20053;-94
2023/08/27 03:52:24;;;;;;;5.15;3.03;;;;;;;;;;4877199;29;20053;-93
2023/08/27 03:54:51;;;;;;;3.65;2.78;;;;;;;;;;4849799;29;20546;-93
2023/08/27 03:57:20;;;;;;;3.00;2.60;;;;;;;;;;4864920;29;20056;-94
2023/08/27 03:59:48;;;;;;;4.80;2.92;;;;;;;;;;4845625;29;20504;-93
2023/08/27 04:02:20;;;;;;;3.65;2.72;;;;;;;;;;4844123;29;20056;-93
2023/08/27 04:04:47;;;;;;;4.03;2.35;;;;;;;;;;4870643;29;20057;-94
2023/08/27 04:07:17;;;;;;;4.32;3.15;;;;;;;;;;4879873;29;20061;-93
2023/08/27 04:09:47;;;;;;;5.60;2.85;;;;;;;;;;4846076;29;20049;-93
2023/08/27 04:12:14;;;;;;;4.20;3.40;;;;;;;;;;4845899;29;20048;-93
2023/08/27 04:14:45;;;;;;;3.95;3.55;;;;;;;;;;4841589;29;20049;-94
2023/08/27 04:17:13;;;;;;;5.70;3.67;;;;;;;;;;4867124;29;20057;-92
2023/08/27 04:19:43;;;;;;;4.53;3.08;;;;;;;;;;4871170;29;20489;-93
2023/08/27 04:22:13;;;;;;;5.68;2.90;;;;;;;;;;4846568;29;20053;-94
2023/08/27 04:24:43;;;;;;;3.53;3.00;;;;;;;;;;4845910;29;20432;-93
2023/08/27 04:27:11;;;;;;;4.57;2.67;;;;;;;;;;4869244;29;20214;-94
2023/08/27 04:29:38;;;;;;;7.63;3.42;;;;;;;;;;4866984;29;20409;-93
2023/08/27 04:32:09;;;;;;;5.47;2.97;;;;;;;;;;4843398;29;20055;-93
2023/08/27 04:34:37;;;;;;;8.27;3.25;;;;;;;;;;4861048;29;20060;-92
2023/08/27 04:37:07;;;;;;;7.53;3.83;;;;;;;;;;4865224;29;20056;-94
2023/08/27 04:39:34;;;;;;;5.65;4.15;;;;;;;;;;4842108;29;20061;-94
2023/08/27 04:42:02;;;;;;;4.90;3.00;;;;;;;;;;4863567;29;20063;-95
2023/08/27 04:44:32;;;;;;;3.22;2.55;;;;;;;;;;4868963;29;20052;-94
2023/08/27 04:47:01;;;;;;;5.20;3.45;;;;;;;;;;4877014;29;20060;-94
2023/08/27 04:49:31;;;;;;;3.45;3.00;;;;;;;;;;4867066;29;20045;-94
2023/08/27 04:51:58;;;;;;;5.60;2.90;;;;;;;;;;4877918;29;20049;-93
2023/08/27 04:54:25;;;;;;;3.88;2.95;;;;;;;;;;4876793;29;20064;-93
2023/08/27 04:56:56;;;;;;;3.80;3.35;;;;;;;;;;4852657;29;20068;-94
2023/08/27 04:59:24;;;;;;;8.40;3.25;;;;;;;;;;4847511;29;20422;-94
2023/08/27 05:01:54;;;;;;;6.32;2.97;;;;;;;;;;4866785;29;20049;-93
2023/08/27 05:04:23;;;;;;;7.68;3.55;;;;;;;;;;4865637;29;20053;-93
2023/08/27 05:06:52;;;;;;;3.85;3.15;;;;;;;;;;4892679;29;20053;-93
2023/08/27 05:09:19;;;;;;;3.80;3.42;;;;;;;;;;4858097;29;20513;-93
2023/08/27 05:11:49;;;;;;;4.28;3.28;;;;;;;;;;4869149;29;20033;-92
2023/08/27 05:14:17;;;;;;;4.70;3.03;;;;;;;;;;4892209;29;20045;-93
2023/08/27 05:16:45;;;;;;;5.85;3.03;;;;;;;;;;4876958;29;20052;-92
2023/08/27 05:19:12;;;;;;;3.60;3.28;;;;;;;;;;4851571;29;20399;-93
2023/08/27 05:21:42;;;;;;;4.30;2.85;;;;;;;;;;4845220;29;20052;-93
2023/08/27 05:24:11;;;;;;;3.95;2.85;;;;;;;;;;4858069;29;20060;-93
2023/08/27 05:26:38;;;;;;;4.57;3.78;;;;;;;;;;4862072;29;20048;-93
2023/08/27 05:29:06;;;;;;;3.55;2.72;;;;;;;;;;4860039;29;20045;-94
2023/08/27 05:31:34;;;;;;;3.53;3.15;;;;;;;;;;4861287;29;20218;-93
2023/08/27 05:34:03;;;;;;;3.38;3.08;;;;;;;;;;4865075;29;20436;-93
2023/08/27 05:36:30;;;;;;;4.93;3.45;;;;;;;;;;4844452;29;20053;-92
2023/08/27 05:38:58;;;;;;;3.60;3.03;;;;;;;;;;4872533;29;20049;-93
2023/08/27 05:41:27;;;;;;;6.55;3.55;;;;;;;;;;4883410;29;20048;-93
2023/08/27 05:43:56;;;;;;;3.92;3.20;;;;;;;;;;4866637;29;20053;-94
2023/08/27 05:46:24;;;;;;;7.95;3.13;;;;;;;;;;4875183;29;20073;-94
2023/08/27 05:48:54;;;;;;;6.20;4.00;;;;;;;;;;4860364;29;20053;-93
2023/08/27 05:51:21;;;;;;;4.32;3.53;;;;;;;;;;4850429;29;20084;-92
2023/08/27 05:53:49;;;;;;;6.80;4.07;;;;;;;;;;4871612;29;20052;-93
2023/08/27 05:56:18;;;;;;;4.15;2.95;;;;;;;;;;4855528;29;20057;-94
2023/08/27 05:58:47;;;;;;;7.03;3.33;;;;;;;;;;4863539;29;20064;-94
2023/08/27 06:01:15;;;;;;;4.88;3.33;;;;;;;;;;4877121;29;20044;-92
2023/08/27 06:03:43;;;;;;;5.18;3.78;;;;;;;;;;4859782;29;20045;-93
2023/08/27 06:06:16;;;;;;;3.70;3.00;;;;;;;;;;4867459;29;20751;-93
2023/08/27 06:08:43;;;;;;;4.78;2.90;;;;;;;;;;4864455;29;20049;-95
2023/08/27 06:11:11;;;;;;;7.72;4.25;;;;;;;;;;4871914;29;21056;-93
2023/08/27 06:13:43;;;;;;;4.18;3.65;;;;;;;;;;4886433;29;20056;-93
2023/08/27 06:16:11;;;;;;;4.35;3.45;;;;;;;;;;4877817;29;20060;-93
2023/08/27 06:18:39;;;;;;;5.10;2.95;;;;;;;;;;4852891;29;20056;-92
2023/08/27 06:21:07;;;;;;;4.53;3.13;;;;;;;;;;4860703;29;20045;-93
2023/08/27 06:23:35;;;;;;;5.55;3.85;;;;;;;;;;4841395;29;20053;-93
2023/08/27 06:26:05;;;;;;;6.07;4.88;;;;;;;;;;4861100;29;20539;-94
2023/08/27 06:28:36;;;;;;;4.28;2.92;;;;;;;;;;4857828;29;20075;-92
2023/08/27 06:31:04;;;;;;;6.05;5.38;;;;;;;;;;4858198;29;20048;-92
2023/08/27 06:33:38;;;;;;;4.70;3.33;;;;;;;;;;4845243;29;20535;-92
2023/08/27 06:36:06;;;;;;;4.53;2.75;;;;;;;;;;4854185;29;20599;-93
2023/08/27 06:38:34;;;;;;;3.55;2.90;;;;;;;;;;4872991;29;20907;-93
2023/08/27 06:41:02;;;;;;;4.28;3.83;;;;;;;;;;4875608;29;20428;-92
2023/08/27 06:43:29;;;;;;;4.50;3.53;;;;;;;;;;4847974;29;20049;-93
2023/08/27 06:45:58;;;;;;;6.43;3.97;;;;;;;;;;4861046;29;20432;-93
2023/08/27 06:48:26;;;;;;;6.15;2.90;;;;;;;;;;4861954;29;20041;-93
2023/08/27 06:50:55;;;;;;;3.65;3.25;;;;;;;;;;4879426;29;20049;-93
2023/08/27 06:53:23;;;;;;;3.72;3.10;;;;;;;;;;4883001;29;20414;-93
2023/08/27 06:55:51;;;;;;;3.85;3.42;;;;;;;;;;4856381;29;20057;-93
2023/08/27 06:58:19;;;;;;;8.35;3.97;;;;;;;;;;4872967;29;20057;-93
2023/08/27 07:00:47;;;;;;;5.32;3.17;;;;;;;;;;4855184;29;20053;-93
2023/08/27 07:03:15;;;;;;;6.30;3.30;;;;;;;;;;4863628;29;20048;-92
2023/08/27 07:05:43;;;;;;;3.35;3.05;;;;;;;;;;4868079;29;20064;-92
2023/08/27 07:08:12;;;;;;;7.60;3.22;;;;;;;;;;4871832;29;20049;-92
2023/08/27 07:10:40;;;;;;;6.28;3.90;;;;;;;;;;4884377;29;20053;-93
2023/08/27 07:13:11;;;;;;;4.20;3.70;;;;;;;;;;4875399;29;20063;-94
2023/08/27 07:15:38;;;;;;;9.02;3.65;;;;;;;;;;4900576;29;20045;-94
2023/08/27 07:18:06;;;;;;;6.53;3.92;;;;;;;;;;4883833;29;20042;-91
2023/08/27 07:20:36;;;;;;;4.57;3.88;;;;;;;;;;4897574;29;20041;-92
2023/08/27 07:23:04;;;;;;;6.93;3.67;;;;;;;;;;4885246;29;20040;-92
2023/08/27 07:25:36;;;;;;;5.13;3.90;;;;;;;;;;4872342;29;20044;-93
2023/08/27 07:28:06;;;;;;;6.27;4.30;;;;;;;;;;4892031;29;20029;-92
2023/08/27 07:30:36;;;;;;;4.75;3.78;;;;;;;;;;4900952;29;20037;-93
2023/08/27 07:33:06;;;;;;;4.57;4.05;;;;;;;;;;4885603;29;20039;-91
2023/08/27 07:35:36;;;;;;;5.97;3.60;;;;;;;;;;4900037;29;20029;-91
2023/08/27 07:38:04;;;;;;;5.25;4.30;;;;;;;;;;4858605;29;20049;-93
2023/08/27 07:40:36;;;;;;;4.30;3.83;;;;;;;;;;4875638;29;20568;-92
2023/08/27 07:43:04;;;;;;;6.87;4.03;;;;;;;;;;4865057;29;20049;-93
2023/08/27 07:45:34;;;;;;;5.00;3.78;;;;;;;;;;4853750;29;20559;-93
2023/08/27 07:48:04;;;;;;;6.90;3.58;;;;;;;;;;4865676;29;20049;-93
2023/08/27 07:50:32;;;;;;;12.40;3.00;;;;;;;;;;4887013;29;20063;-93
2023/08/27 07:52:59;;;;;;;3.40;2.88;;;;;;;;;;4857091;29;20454;-93
2023/08/27 07:55:27;;;;;;;5.53;3.15;;;;;;;;;;4871895;29;20064;-93
2023/08/27 07:57:58;;;;;;;3.72;2.95;;;;;;;;;;4872670;29;20036;-92
2023/08/27 08:00:26;;;;;;;3.92;3.35;;;;;;;;;;4897545;29;20072;-92
2023/08/27 08:02:55;;;;;;;5.55;3.10;;;;;;;;;;4897738;29;20051;-94
2023/08/27 08:05:25;;;;;;;4.82;3.53;;;;;;;;;;4878288;29;20049;-93
2023/08/27 08:07:53;;;;;;;4.55;3.75;;;;;;;;;;4878528;29;20061;-94
2023/08/27 08:10:20;;;;;;;4.65;3.88;;;;;;;;;;4885637;29;20048;-93
2023/08/27 08:12:50;;;;;;;3.90;3.28;;;;;;;;;;4861034;29;20052;-92
2023/08/27 08:15:21;;;;;;;7.32;4.75;;;;;;;;;;4891333;29;20033;-91
2023/08/27 08:17:53;;;;;;;6.82;4.05;;;;;;;;;;4898077;29;20045;-92
2023/08/27 08:20:23;;;;;;;7.22;3.30;;;;;;;;;;4873911;29;20436;-92
2023/08/27 08:22:51;;;;;;;5.28;4.50;;;;;;;;;;4872677;29;20056;-92
2023/08/27 08:25:23;;;;;;;5.65;3.80;;;;;;;;;;4868840;29;20621;-93
2023/08/27 08:27:50;;;;;;;5.68;3.85;;;;;;;;;;4879057;29;20061;-94
2023/08/27 08:30:18;;;;;;;9.90;4.72;;;;;;;;;;4864808;29;20068;-93
2023/08/27 08:32:47;;;;;;;7.72;4.15;;;;;;;;;;4863265;29;20063;-93
2023/08/27 08:35:18;;;;;;;7.05;4.75;;;;;;;;;;4864972;29;20068;-94
2023/08/27 08:37:46;;;;;;;7.75;4.35;;;;;;;;;;4871611;29;20053;-92
2023/08/27 08:40:16;;;;;;;5.05;4.55;;;;;;;;;;4865864;29;20057;-94
2023/08/27 08:42:49;;;;;;;6.85;4.57;;;;;;;;;;4857637;29;20057;-93
2023/08/27 08:45:23;;;;;;;7.63;4.30;;;;;;;;;;4886590;29;20539;-92
2023/08/27 08:47:54;;;;;;;5.72;5.00;;;;;;;;;;4875974;29;20049;-92
2023/08/27 08:50:23;;;;;;;4.47;4.07;;;;;;;;;;4896975;29;20072;-92
2023/08/27 08:52:54;;;;;;;4.78;4.18;;;;;;;;;;4904941;29;20325;-93
2023/08/27 08:55:25;;;;;;;5.07;4.20;;;;;;;;;;4898770;29;20036;-93
2023/08/27 08:57:57;;;;;;;5.07;4.35;;;;;;;;;;4882609;29;20049;-93
2023/08/27 09:00:25;;;;;;;8.73;4.83;;;;;;;;;;4897943;29;20072;-92
2023/08/27 09:02:55;;;;;;;5.50;4.53;;;;;;;;;;4895373;29;20321;-93
2023/08/27 09:05:23;;;;;;;11.00;5.97;;;;;;;;;;4888303;29;20061;-93
2023/08/27 09:07:53;;;;;;;7.20;5.22;;;;;;;;;;4865458;29;20060;-92
2023/08/27 09:10:21;;;;;;;4.60;4.20;;;;;;;;;;4870102;29;20056;-91
2023/08/27 09:12:49;;;;;;;5.32;4.43;;;;;;;;;;4857631;29;20064;-93
2023/08/27 09:15:17;;;;;;;6.68;5.18;;;;;;;;;;4878914;29;20053;-93
2023/08/27 09:17:45;;;;;;;4.30;3.90;;;;;;;;;;4875116;29;20528;-93
2023/08/27 09:20:14;;;;;;;6.50;4.55;;;;;;;;;;4863196;29;20064;-92
2023/08/27 09:22:42;;;;;;;6.75;5.03;;;;;;;;;;4871178;29;20045;-93
2023/08/27 09:25:10;;;;;;;6.47;4.95;;;;;;;;;;4884536;29;20056;-93
2023/08/27 09:27:38;;;;;;;6.45;5.63;;;;;;;;;;4864548;29;20053;-92
2023/08/27 09:30:07;;;;;;;8.55;4.35;;;;;;;;;;4861566;29;20065;-93
2023/08/27 09:32:35;;;;;;;9.85;4.80;;;;;;;;;;4859871;29;20052;-93
2023/08/27 09:35:04;;;;;;;7.53;5.00;;;;;;;;;;4862582;29;20045;-93
2023/08/27 09:37:42;;;;;;;6.38;5.03;;;;;;;;;;4856267;29;20060;-92
2023/08/27 09:40:11;;;;;;;7.85;4.95;;;;;;;;;;4856383;29;20044;-93
2023/08/27 09:42:39;;;;;;;6.28;4.85;;;;;;;;;;4858555;29;20561;-93
2023/08/27 09:45:08;;;;;;;7.22;4.78;;;;;;;;;;4871154;29;20053;-94
2023/08/27 09:47:37;;;;;;;6.20;5.20;;;;;;;;;;4891407;29;20037;-93
2023/08/27 09:50:06;;;;;;;5.45;4.05;;;;;;;;;;4888588;29;20049;-93
2023/08/27 09:52:34;;;;;;;7.45;4.82;;;;;;;;;;4868990;29;20037;-91
2023/08/27 09:55:05;;;;;;;8.05;4.45;;;;;;;;;;4869865;29;20043;-91
2023/08/27 09:57:33;;;;;;;5.93;4.70;;;;;;;;;;4906053;29;20059;-92
2023/08/27 10:00:08;;;;;;;5.03;4.50;;;;;;;;;;4896775;29;20051;-93
2023/08/27 10:02:43;;;;;;;4.80;4.40;;;;;;;;;;4894065;29;20036;-92
2023/08/27 10:05:11;;;;;;;5.95;4.18;;;;;;;;;;4894844;29;20055;-93
2023/08/27 10:07:39;;;;;;;5.43;4.20;;;;;;;;;;4877639;29;20052;-93
2023/08/27 10:10:09;;;;;;;5.55;4.05;;;;;;;;;;4885856;29;20079;-93
2023/08/27 10:12:40;;;;;;;5.03;4.40;;;;;;;;;;4884384;29;20045;-93
2023/08/27 10:15:07;;;;;;;4.22;3.83;;;;;;;;;;4895469;29;20056;-94
2023/08/27 10:17:37;;;;;;;7.95;5.60;;;;;;;;;;4881006;29;20051;-94
2023/08/27 10:20:08;;;;;;;6.65;4.68;;;;;;;;;;4897921;29;20055;-93
2023/08/27 10:22:36;;;;;;;7.15;5.60;;;;;;;;;;4892818;29;20045;-95
2023/08/27 10:25:09;;;;;;;5.22;4.72;;;;;;;;;;4895465;29;20068;-93
2023/08/27 10:27:41;;;;;;;5.22;3.92;;;;;;;;;;4887388;29;20127;-94
2023/08/27 10:30:14;;;;;;;6.47;3.67;;;;;;;;;;4865287;29;20045;-93
2023/08/27 10:32:44;;;;;;;4.32;3.72;;;;;;;;;;4878498;29;20049;-93
2023/08/27 10:35:14;;;;;;;6.13;4.00;;;;;;;;;;4872729;29;20065;-95
2023/08/27 10:37:47;;;;;;;4.40;4.00;;;;;;;;;;4868896;29;20049;-93
2023/08/27 10:43:08;;;;;;;;;;;;;;;;;;4882947;29;20509;-94
2023/08/27 10:45:38;;;;;;;5.22;4.72;;;;;;;;;;4885725;29;20406;-94
2023/08/27 10:48:11;;;;;;;4.32;3.92;;;;;;;;;;4892220;29;20053;-93
2023/08/27 10:50:46;;;;;;;;;;;;;;;;;;4879170;29;20070;-93
2023/08/27 10:53:13;;;;;;;4.53;4.15;;;;;;;;;;4885581;29;19928;-93
2023/08/27 10:55:44;;;;;;;5.75;4.18;;;;;;;;;;4870103;29;20048;-93
2023/08/27 10:58:18;;;;;;;5.63;4.53;;;;;;;;;;4869271;29;20061;-92
2023/08/27 11:00:58;;;;;;;6.32;4.97;;;;;;;;;;4891813;29;20057;-92
2023/08/27 11:03:26;;;;;;;5.63;4.47;;;;;;;;;;4881818;29;20053;-92
2023/08/27 11:06:11;;;;;;;5.82;3.33;;;;;;;;;;4885451;29;20056;-93
2023/08/27 11:08:40;;;;;;;4.20;3.78;;;;;;;;;;4881857;29;20535;-92
2023/08/27 11:11:15;;;;;;;4.25;3.22;;;;;;;;;;4872811;29;20056;-93
2023/08/27 11:13:44;;;;;;;6.03;4.07;;;;;;;;;;4850163;29;20064;-93
2023/08/27 11:16:16;;;;;;;7.18;3.60;;;;;;;;;;4867027;29;20072;-93
2023/08/27 11:18:45;;;;;;;3.58;3.28;;;;;;;;;;4878557;29;20048;-92
2023/08/27 11:21:22;;;;;;;7.57;3.40;;;;;;;;;;4887818;29;20049;-92
2023/08/27 11:24:14;;;;;;;3.20;2.65;;;;;;;;;;4869096;29;20061;-93
2023/08/27 11:26:48;;;;;;;4.25;3.50;;;;;;;;;;4882597;29;20440;-92
2023/08/27 11:29:17;;;;;;;4.90;4.07;;;;;;;;;;4881658;29;20049;-92
2023/08/27 11:31:53;;;;;;;3.38;3.08;;;;;;;;;;4904104;29;20033;-91
2023/08/27 11:34:20;;;;;;;3.30;2.78;;;;;;;;;;4886028;29;20064;-92
2023/08/27 11:36:49;;;;;;;4.25;2.85;;;;;;;;;;4861423;29;20049;-92
2023/08/27 11:39:18;;;;;;;2.92;2.65;;;;;;;;;;4859515;29;20057;-92
2023/08/27 11:41:47;;;;;;;3.92;2.70;;;;;;;;;;4871279;29;20057;-92
2023/08/27 11:44:16;;;;;;;4.35;2.85;;;;;;;;;;4876732;29;20072;-93
2023/08/27 11:46:46;;;;;;;4.47;3.05;;;;;;;;;;4864491;29;20432;-93
2023/08/27 11:49:14;;;;;;;4.63;2.78;;;;;;;;;;4865957;29;20060;-93
2023/08/27 11:51:43;;;;;;;7.55;3.90;;;;;;;;;;4878782;29;20061;-93
2023/08/27 11:54:11;;;;;;;3.30;2.70;;;;;;;;;;4852059;29;20053;-94
2023/08/27 11:56:42;;;;;;;6.45;3.30;;;;;;;;;;4888675;29;20064;-93
2023/08/27 11:59:13;;;;;;;2.90;2.58;;;;;;;;;;4883012;29;20524;-92
2023/08/27 12:01:43;;;;;;;4.55;3.03;;;;;;;;;;4864194;29;20056;-92
2023/08/27 12:04:11;;;;;;;3.78;2.58;;;;;;;;;;4874421;29;20052;-93
2023/08/27 12:06:38;;;;;;;5.32;2.13;;;;;;;;;;4863591;29;20413;-93
2023/08/27 12:09:26;;;;;;;4.00;2.22;;;;;;;;;;4863661;29;20053;-92
2023/08/27 12:11:55;;;;;;;2.20;2.00;;;;;;;;;;4864703;29;20060;-93
2023/08/27 12:14:29;;;;;;;2.35;2.15;;;;;;;;;;4867041;29;20069;-92
2023/08/27 12:17:02;;;;;;;5.43;2.25;;;;;;;;;;4866151;29;20064;-92
2023/08/27 12:19:29;;;;;;;4.05;2.30;;;;;;;;;;4881561;29;20057;-92
2023/08/27 12:21:58;;;;;;;2.72;2.53;;;;;;;;;;4855957;29;20265;-92
2023/08/27 12:24:29;;;;;;;3.08;1.80;;;;;;;;;;4857603;29;20060;-92
2023/08/27 12:26:57;;;;;;;6.88;2.60;;;;;;;;;;4864478;29;20064;-93
2023/08/27 12:29:29;;;;;;;2.47;2.22;;;;;;;;;;4860910;29;20523;-93
2023/08/27 12:31:58;;;;;;;;;;;;;;;;;;4864362;29;20410;-92
2023/08/27 12:34:36;;;;;;;2.17;1.98;;;;;;;;;;4873844;29;19928;-92
2023/08/27 12:37:10;;;;;;;3.55;2.80;;;;;;;;;;4875705;29;20057;-92
2023/08/27 12:39:41;;;;;;;4.20;2.63;;;;;;;;;;4880892;29;20528;-92
2023/08/27 12:42:12;;;;;;;2.03;1.75;;;;;;;;;;4861964;29;20057;-92
2023/08/27 12:44:45;;;;;;;7.60;3.47;;;;;;;;;;4873053;29;20060;-93
2023/08/27 12:47:13;;;;;;;2.13;1.92;;;;;;;;;;4877928;29;20053;-92
2023/08/27 12:49:41;;;;;;;7.47;2.30;;;;;;;;;;4864731;29;20056;-94
2023/08/27 12:52:08;;;;;;;6.00;2.75;;;;;;;;;;4878483;29;20057;-93
2023/08/27 12:54:40;;;;;;;2.88;2.15;;;;;;;;;;4865307;29;20052;-93
2023/08/27 12:57:10;;;;;;;2.40;2.00;;;;;;;;;;4862641;29;20056;-92
2023/08/27 12:59:40;;;;;;;3.95;2.35;;;;;;;;;;4875758;29;20416;-92
2023/08/27 13:02:09;;;;;;;3.45;2.40;;;;;;;;;;4879607;29;20044;-92
2023/08/27 13:04:36;;;;;;;4.97;2.38;;;;;;;;;;4895324;29;20072;-93
2023/08/27 13:07:04;;;;;;;2.85;2.05;;;;;;;;;;4871232;29;20057;-93
2023/08/27 13:09:32;;;;;;;2.25;2.05;;;;;;;;;;4869963;29;20068;-93
2023/08/27 13:12:02;;;;;;;4.35;2.15;;;;;;;;;;4888981;29;20052;-92
2023/08/27 13:14:32;;;;;;;4.50;1.95;;;;;;;;;;4881063;29;20049;-93
2023/08/27 13:17:01;;;;;;;3.15;1.92;;;;;;;;;;4864706;29;20052;-93
2023/08/27 13:19:30;;;;;;;2.75;1.92;;;;;;;;;;4882086;29;20049;-93
2023/08/27 13:21:58;;;;;;;2.13;1.90;;;;;;;;;;4857580;29;20060;-92
2023/08/27 13:24:27;;;;;;;4.28;2.05;;;;;;;;;;4871422;29;20056;-92
2023/08/27 13:26:55;;;;;;;3.35;2.25;;;;;;;;;;4870457;29;20057;-93
2023/08/27 13:29:22;;;;;;;4.15;2.30;;;;;;;;;;4871006;29;20061;-93
2023/08/27 13:31:55;;;;;;;4.57;2.78;;;;;;;;;;4882224;29;20056;-93
2023/08/27 13:34:25;;;;;;;6.17;2.60;;;;;;;;;;4868422;29;20060;-93
2023/08/27 13:36:55;;;;;;;2.83;2.22;;;;;;;;;;4869960;29;20294;-93
2023/08/27 13:39:27;;;;;;;4.55;2.53;;;;;;;;;;4866320;29;20056;-93
2023/08/27 13:42:00;;;;;;;4.90;2.15;;;;;;;;;;4888697;29;20052;-93
2023/08/27 13:44:30;;;;;;;2.50;2.30;;;;;;;;;;4858098;29;20050;-93
2023/08/27 13:46:57;;;;;;;2.38;2.17;;;;;;;;;;4897132;29;20057;-93
2023/08/27 13:49:25;;;;;;;4.38;2.58;;;;;;;;;;4874665;29;20566;-93
2023/08/27 13:51:54;;;;;;;3.58;2.63;;;;;;;;;;4884571;29;20060;-92
2023/08/27 13:54:24;;;;;;;3.38;2.38;;;;;;;;;;4876649;29;20067;-92
2023/08/27 13:56:55;;;;;;;5.28;2.53;;;;;;;;;;4874504;29;20800;-92
2023/08/27 13:59:26;;;;;;;2.97;2.38;;;;;;;;;;4877881;29;20085;-93
2023/08/27 14:01:54;;;;;;;2.70;2.35;;;;;;;;;;4885206;29;20053;-93
2023/08/27 14:04:21;;;;;;;2.97;2.58;;;;;;;;;;4850417;29;20509;-93
2023/08/27 14:06:51;;;;;;;5.22;2.72;;;;;;;;;;4868689;29;20053;-93
2023/08/27 14:09:22;;;;;;;2.60;2.40;;;;;;;;;;4871272;29;20529;-92
2023/08/27 14:11:50;;;;;;;2.58;2.00;;;;;;;;;;4877146;29;20045;-91
2023/08/27 14:14:21;;;;;;;3.13;1.42;;;;;;;;;;4861059;29;20053;-92
2023/08/27 14:16:51;;;;;;;2.28;1.73;;;;;;;;;;4872807;29;20052;-92
2023/08/27 14:19:21;;;;;;;;;;;;;;;;;;4861426;29;20061;-91
2023/08/27 14:21:49;;;;;;;2.67;1.95;;;;;;;;;;4878053;29;20399;-92
2023/08/27 14:24:17;;;;;;;4.82;1.92;;;;;;;;;;4857436;29;20064;-92
2023/08/27 14:26:48;;;;;;;1.70;1.60;;;;;;;;;;4867711;29;20528;-92
2023/08/27 14:29:19;;;;;;;1.48;1.38;;;;;;;;;;4858763;29;20060;-92
2023/08/27 14:31:47;;;;;;;2.88;1.45;;;;;;;;;;4859580;29;20429;-91
2023/08/27 14:34:15;;;;;;;1.70;1.60;;;;;;;;;;4851419;29;20048;-93
2023/08/27 14:36:43;;;;;;;4.00;1.35;;;;;;;;;;4845937;29;20065;-92
2023/08/27 14:39:10;;;;;;;2.55;1.65;;;;;;;;;;4871344;29;20064;-91
2023/08/27 14:41:38;;;;;;;2.47;1.73;;;;;;;;;;4858877;29;20061;-92
2023/08/27 14:44:07;;;;;;;2.00;1.80;;;;;;;;;;4878819;29;20134;-92
2023/08/27 14:46:35;;;;;;;3.90;1.88;;;;;;;;;;4880508;29;20059;-91
2023/08/27 14:49:03;;;;;;;1.65;1.55;;;;;;;;;;4878845;29;20574;-93
2023/08/27 14:51:31;;;;;;;2.92;2.05;;;;;;;;;;4872759;29;20083;-92
2023/08/27 14:54:01;;;;;;;2.00;1.67;;;;;;;;;;4867962;29;20041;-92
2023/08/27 14:56:30;;;;;;;3.50;2.28;;;;;;;;;;4862986;29;20053;-92
2023/08/27 14:59:03;;;;;;;2.47;1.30;;;;;;;;;;4885190;29;20060;-91